Pagina principale
METAR-TAF:

METAR-TAF

Aeroporti :

Aeroporto Internazionale di Bengasi-Benina

Bengasi, Libia

latitudine: 32-06N, longitudine: 020-16E, altezza: 131 m

METAR: mancante

Ora: 02:35 (00:35 UTC)

Previsione

Il bollettino è stato emesso 1 ora e 35 minuti fa, alle 23:00 UTC
Previsione valida dal 21 alle 00 UTC al 21 alle 24 UTC
Vento 2 kt da direzioni variabili
Visibilità: 8000 m
Poco nuvoloso ad un'altezza di 2500 ft
Nubi sparse ad un'altezza di 8000 ft
Evoluzione graduale
dal 21 alle 10 UTC al 21 alle 12 UTC
Vento 10 kt da nord

TAF: HLLB 202300Z 2100/2124 VRB02KT 8000 FEW025 SCT080 BECMG 2110/2112 35010KT

Osservazioni e previsioni meteorologiche di più di 4000 aeroporti (messaggi METAR e TAF).

Le stazioni disponibili sono rappresentate dai dischi gialli e rossi sulla carta.

Puntare il mouse per vedere il nome della stazione.

Clicca sopra per visualizzare le osservazioni e previsioni meteorologiche.

Per cambiare la mappa : fare clic sui pulsanti verdi con una croce nera per ingrandire, il pulsante verde con un trattino per diminuire, o sulla freccia verde per le mappe adiacenti.


METAR-TAF: